sensor_id;sensor_type;location;lat;lon;timestamp;temperature;humidity
53208;DHT22;39093;52.788;6.940;2023-05-20T00:01:12;13.00;99.90
53208;DHT22;39093;52.788;6.940;2023-05-20T00:03:39;13.00;99.90
53208;DHT22;39093;52.788;6.940;2023-05-20T00:06:06;12.90;99.90
53208;DHT22;39093;52.788;6.940;2023-05-20T00:08:33;12.90;99.90
53208;DHT22;39093;52.788;6.940;2023-05-20T00:11:00;12.90;99.90
53208;DHT22;39093;52.788;6.940;2023-05-20T00:13:27;12.90;99.90
53208;DHT22;39093;52.788;6.940;2023-05-20T00:15:54;12.90;99.90
53208;DHT22;39093;52.788;6.940;2023-05-20T00:18:21;12.80;99.90
53208;DHT22;39093;52.788;6.940;2023-05-20T00:20:48;12.80;99.90
53208;DHT22;39093;52.788;6.940;2023-05-20T00:23:15;12.80;99.90
53208;DHT22;39093;52.788;6.940;2023-05-20T00:25:41;12.80;99.90
53208;DHT22;39093;52.788;6.940;2023-05-20T00:28:08;12.80;99.90
53208;DHT22;39093;52.788;6.940;2023-05-20T00:30:38;12.80;99.90
53208;DHT22;39093;52.788;6.940;2023-05-20T00:33:06;12.80;99.90
53208;DHT22;39093;52.788;6.940;2023-05-20T00:35:33;12.80;99.90
53208;DHT22;39093;52.788;6.940;2023-05-20T00:38:00;12.80;99.90
53208;DHT22;39093;52.788;6.940;2023-05-20T00:40:27;12.70;99.90
53208;DHT22;39093;52.788;6.940;2023-05-20T00:42:54;12.70;99.90
53208;DHT22;39093;52.788;6.940;2023-05-20T00:45:21;12.70;99.90
53208;DHT22;39093;52.788;6.940;2023-05-20T00:47:48;12.70;99.90
53208;DHT22;39093;52.788;6.940;2023-05-20T00:50:16;12.70;99.90
53208;DHT22;39093;52.788;6.940;2023-05-20T00:52:43;12.70;99.90
53208;DHT22;39093;52.788;6.940;2023-05-20T00:55:11;12.70;99.90
53208;DHT22;39093;52.788;6.940;2023-05-20T00:57:38;12.70;99.90
53208;DHT22;39093;52.788;6.940;2023-05-20T01:00:06;12.70;99.90
53208;DHT22;39093;52.788;6.940;2023-05-20T01:02:33;12.70;99.90
53208;DHT22;39093;52.788;6.940;2023-05-20T01:05:00;12.60;99.90
53208;DHT22;39093;52.788;6.940;2023-05-20T01:07:27;12.70;99.90
53208;DHT22;39093;52.788;6.940;2023-05-20T01:09:54;12.70;99.90
53208;DHT22;39093;52.788;6.940;2023-05-20T01:12:27;12.60;99.90
53208;DHT22;39093;52.788;6.940;2023-05-20T01:17:32;12.60;99.90
53208;DHT22;39093;52.788;6.940;2023-05-20T01:20:05;12.70;99.90
53208;DHT22;39093;52.788;6.940;2023-05-20T01:22:36;12.70;99.90
53208;DHT22;39093;52.788;6.940;2023-05-20T01:25:03;12.60;99.90
53208;DHT22;39093;52.788;6.940;2023-05-20T01:27:30;12.70;99.90
53208;DHT22;39093;52.788;6.940;2023-05-20T01:29:57;12.70;99.90
53208;DHT22;39093;52.788;6.940;2023-05-20T01:32:32;12.70;99.90
53208;DHT22;39093;52.788;6.940;2023-05-20T01:35:00;12.70;99.90
53208;DHT22;39093;52.788;6.940;2023-05-20T01:37:29;12.70;99.90
53208;DHT22;39093;52.788;6.940;2023-05-20T01:39:57;12.70;99.90
53208;DHT22;39093;52.788;6.940;2023-05-20T01:42:26;12.70;99.90
53208;DHT22;39093;52.788;6.940;2023-05-20T01:44:53;12.70;99.90
53208;DHT22;39093;52.788;6.940;2023-05-20T01:47:20;12.60;99.90
53208;DHT22;39093;52.788;6.940;2023-05-20T01:49:47;12.70;99.90
53208;DHT22;39093;52.788;6.940;2023-05-20T01:52:15;12.60;99.90
53208;DHT22;39093;52.788;6.940;2023-05-20T01:54:42;12.60;99.90
53208;DHT22;39093;52.788;6.940;2023-05-20T01:57:14;12.70;99.90
53208;DHT22;39093;52.788;6.940;2023-05-20T01:59:41;12.70;99.90
53208;DHT22;39093;52.788;6.940;2023-05-20T02:02:08;12.70;99.90
53208;DHT22;39093;52.788;6.940;2023-05-20T02:04:35;12.70;99.90
53208;DHT22;39093;52.788;6.940;2023-05-20T02:07:02;12.60;99.90
53208;DHT22;39093;52.788;6.940;2023-05-20T02:09:29;12.60;99.90
53208;DHT22;39093;52.788;6.940;2023-05-20T02:11:56;12.60;99.90
53208;DHT22;39093;52.788;6.940;2023-05-20T02:14:22;12.50;99.90
53208;DHT22;39093;52.788;6.940;2023-05-20T02:16:49;12.50;99.90
53208;DHT22;39093;52.788;6.940;2023-05-20T02:19:16;12.50;99.90
53208;DHT22;39093;52.788;6.940;2023-05-20T02:21:49;12.50;99.90
53208;DHT22;39093;52.788;6.940;2023-05-20T02:24:16;12.40;99.90
53208;DHT22;39093;52.788;6.940;2023-05-20T02:26:45;12.40;99.90
53208;DHT22;39093;52.788;6.940;2023-05-20T02:29:12;12.40;99.90
53208;DHT22;39093;52.788;6.940;2023-05-20T02:31:39;12.40;99.90
53208;DHT22;39093;52.788;6.940;2023-05-20T02:34:06;12.40;99.90
53208;DHT22;39093;52.788;6.940;2023-05-20T02:36:33;12.40;99.90
53208;DHT22;39093;52.788;6.940;2023-05-20T02:39:00;12.40;99.90
53208;DHT22;39093;52.788;6.940;2023-05-20T02:41:26;12.30;99.90
53208;DHT22;39093;52.788;6.940;2023-05-20T02:43:53;12.40;99.90
53208;DHT22;39093;52.788;6.940;2023-05-20T02:46:20;12.30;99.90
53208;DHT22;39093;52.788;6.940;2023-05-20T02:48:47;12.30;99.90
53208;DHT22;39093;52.788;6.940;2023-05-20T02:51:14;12.30;99.90
53208;DHT22;39093;52.788;6.940;2023-05-20T02:53:41;12.20;99.90
53208;DHT22;39093;52.788;6.940;2023-05-20T02:56:08;12.20;99.90
53208;DHT22;39093;52.788;6.940;2023-05-20T02:58:35;12.20;99.90
53208;DHT22;39093;52.788;6.940;2023-05-20T03:01:02;12.10;99.90
53208;DHT22;39093;52.788;6.940;2023-05-20T03:03:29;12.10;99.90
53208;DHT22;39093;52.788;6.940;2023-05-20T03:05:57;12.10;99.90
53208;DHT22;39093;52.788;6.940;2023-05-20T03:08:24;12.10;99.90
53208;DHT22;39093;52.788;6.940;2023-05-20T03:10:50;12.10;99.90
53208;DHT22;39093;52.788;6.940;2023-05-20T03:13:17;12.10;99.90
53208;DHT22;39093;52.788;6.940;2023-05-20T03:15:44;12.10;99.90
53208;DHT22;39093;52.788;6.940;2023-05-20T03:18:11;12.00;99.90
53208;DHT22;39093;52.788;6.940;2023-05-20T03:20:39;12.00;99.90
53208;DHT22;39093;52.788;6.940;2023-05-20T03:23:07;12.10;99.90
53208;DHT22;39093;52.788;6.940;2023-05-20T03:25:35;12.10;99.90
53208;DHT22;39093;52.788;6.940;2023-05-20T03:28:03;12.00;99.90
53208;DHT22;39093;52.788;6.940;2023-05-20T03:30:30;12.00;99.90
53208;DHT22;39093;52.788;6.940;2023-05-20T03:32:57;12.00;99.90
53208;DHT22;39093;52.788;6.940;2023-05-20T03:35:25;12.00;99.90
53208;DHT22;39093;52.788;6.940;2023-05-20T03:37:52;11.90;99.90
53208;DHT22;39093;52.788;6.940;2023-05-20T03:40:19;11.80;99.90
53208;DHT22;39093;52.788;6.940;2023-05-20T03:42:47;11.80;99.90
53208;DHT22;39093;52.788;6.940;2023-05-20T03:45:15;11.80;99.90
53208;DHT22;39093;52.788;6.940;2023-05-20T03:47:42;11.80;99.90
53208;DHT22;39093;52.788;6.940;2023-05-20T03:50:09;11.70;99.90
53208;DHT22;39093;52.788;6.940;2023-05-20T03:52:36;11.70;99.90
53208;DHT22;39093;52.788;6.940;2023-05-20T03:55:04;11.70;99.90
53208;DHT22;39093;52.788;6.940;2023-05-20T03:57:31;11.60;99.90
53208;DHT22;39093;52.788;6.940;2023-05-20T03:59:58;11.60;99.90
53208;DHT22;39093;52.788;6.940;2023-05-20T04:02:25;11.60;99.90
53208;DHT22;39093;52.788;6.940;2023-05-20T04:04:52;11.60;99.90
53208;DHT22;39093;52.788;6.940;2023-05-20T04:07:23;11.60;99.90
53208;DHT22;39093;52.788;6.940;2023-05-20T04:09:50;11.50;99.90
53208;DHT22;39093;52.788;6.940;2023-05-20T04:12:17;11.50;99.90
53208;DHT22;39093;52.788;6.940;2023-05-20T04:14:45;11.60;99.90
53208;DHT22;39093;52.788;6.940;2023-05-20T04:17:11;11.50;99.90
53208;DHT22;39093;52.788;6.940;2023-05-20T04:19:38;11.50;99.90
53208;DHT22;39093;52.788;6.940;2023-05-20T04:22:05;11.50;99.90
53208;DHT22;39093;52.788;6.940;2023-05-20T04:24:32;11.50;99.90
53208;DHT22;39093;52.788;6.940;2023-05-20T04:26:59;11.50;99.90
53208;DHT22;39093;52.788;6.940;2023-05-20T04:29:27;11.40;99.90
53208;DHT22;39093;52.788;6.940;2023-05-20T04:31:55;11.40;99.90
53208;DHT22;39093;52.788;6.940;2023-05-20T04:34:24;11.50;99.90
53208;DHT22;39093;52.788;6.940;2023-05-20T04:36:52;11.50;99.90
53208;DHT22;39093;52.788;6.940;2023-05-20T04:39:19;11.50;99.90
53208;DHT22;39093;52.788;6.940;2023-05-20T04:41:46;11.50;99.90
53208;DHT22;39093;52.788;6.940;2023-05-20T04:44:14;11.50;99.90
53208;DHT22;39093;52.788;6.940;2023-05-20T04:46:40;11.60;99.90
53208;DHT22;39093;52.788;6.940;2023-05-20T04:49:07;11.70;99.90
53208;DHT22;39093;52.788;6.940;2023-05-20T04:51:34;11.70;99.90
53208;DHT22;39093;52.788;6.940;2023-05-20T04:54:01;11.70;99.90
53208;DHT22;39093;52.788;6.940;2023-05-20T04:56:28;11.70;99.90
53208;DHT22;39093;52.788;6.940;2023-05-20T04:58:55;11.70;99.90
53208;DHT22;39093;52.788;6.940;2023-05-20T05:01:22;11.70;99.90
53208;DHT22;39093;52.788;6.940;2023-05-20T05:03:49;11.70;99.90
53208;DHT22;39093;52.788;6.940;2023-05-20T05:06:16;11.70;99.90
53208;DHT22;39093;52.788;6.940;2023-05-20T05:08:43;11.80;99.90
53208;DHT22;39093;52.788;6.940;2023-05-20T05:11:10;11.70;99.90
53208;DHT22;39093;52.788;6.940;2023-05-20T05:13:37;11.80;99.90
53208;DHT22;39093;52.788;6.940;2023-05-20T05:16:04;11.70;99.90
53208;DHT22;39093;52.788;6.940;2023-05-20T05:18:31;11.80;99.90
53208;DHT22;39093;52.788;6.940;2023-05-20T05:21:02;11.80;99.90
53208;DHT22;39093;52.788;6.940;2023-05-20T05:23:30;11.90;99.90
53208;DHT22;39093;52.788;6.940;2023-05-20T05:25:57;11.90;99.90
53208;DHT22;39093;52.788;6.940;2023-05-20T05:28:24;12.00;99.90
53208;DHT22;39093;52.788;6.940;2023-05-20T05:30:53;12.00;99.90
53208;DHT22;39093;52.788;6.940;2023-05-20T05:33:22;12.00;99.90
53208;DHT22;39093;52.788;6.940;2023-05-20T05:35:49;12.00;99.90
53208;DHT22;39093;52.788;6.940;2023-05-20T05:38:16;12.10;99.90
53208;DHT22;39093;52.788;6.940;2023-05-20T05:40:43;12.10;99.90
53208;DHT22;39093;52.788;6.940;2023-05-20T05:43:10;12.10;99.90
53208;DHT22;39093;52.788;6.940;2023-05-20T05:45:37;12.20;99.90
53208;DHT22;39093;52.788;6.940;2023-05-20T05:48:04;12.20;99.90
53208;DHT22;39093;52.788;6.940;2023-05-20T05:50:31;12.30;99.90
53208;DHT22;39093;52.788;6.940;2023-05-20T05:52:58;12.30;99.90
53208;DHT22;39093;52.788;6.940;2023-05-20T05:55:25;12.30;99.90
53208;DHT22;39093;52.788;6.940;2023-05-20T05:57:52;12.40;99.90
53208;DHT22;39093;52.788;6.940;2023-05-20T06:00:19;12.50;99.90
53208;DHT22;39093;52.788;6.940;2023-05-20T06:02:46;12.40;99.90
53208;DHT22;39093;52.788;6.940;2023-05-20T06:05:14;12.40;99.90
53208;DHT22;39093;52.788;6.940;2023-05-20T06:07:41;12.50;99.90
53208;DHT22;39093;52.788;6.940;2023-05-20T06:10:08;12.60;99.90
53208;DHT22;39093;52.788;6.940;2023-05-20T06:12:35;12.60;99.90
53208;DHT22;39093;52.788;6.940;2023-05-20T06:15:03;12.60;99.90
53208;DHT22;39093;52.788;6.940;2023-05-20T06:17:30;12.70;99.90
53208;DHT22;39093;52.788;6.940;2023-05-20T06:19:57;12.70;99.90
53208;DHT22;39093;52.788;6.940;2023-05-20T06:22:24;12.80;99.90
53208;DHT22;39093;52.788;6.940;2023-05-20T06:24:52;12.80;99.90
53208;DHT22;39093;52.788;6.940;2023-05-20T06:27:19;12.90;99.90
53208;DHT22;39093;52.788;6.940;2023-05-20T06:29:46;13.00;99.90
53208;DHT22;39093;52.788;6.940;2023-05-20T06:32:13;13.20;99.90
53208;DHT22;39093;52.788;6.940;2023-05-20T06:34:40;13.60;99.90
53208;DHT22;39093;52.788;6.940;2023-05-20T06:37:07;14.00;99.90
53208;DHT22;39093;52.788;6.940;2023-05-20T06:39:34;14.30;99.90
53208;DHT22;39093;52.788;6.940;2023-05-20T06:42:02;14.80;99.90
53208;DHT22;39093;52.788;6.940;2023-05-20T06:44:30;15.00;99.90
53208;DHT22;39093;52.788;6.940;2023-05-20T06:46:56;15.30;99.90
53208;DHT22;39093;52.788;6.940;2023-05-20T06:49:23;15.50;99.90
53208;DHT22;39093;52.788;6.940;2023-05-20T06:51:50;15.80;99.80
53208;DHT22;39093;52.788;6.940;2023-05-20T06:54:18;16.00;99.90
53208;DHT22;39093;52.788;6.940;2023-05-20T06:56:45;16.30;99.30
53208;DHT22;39093;52.788;6.940;2023-05-20T06:59:12;16.40;98.60
53208;DHT22;39093;52.788;6.940;2023-05-20T07:01:39;16.60;98.20
53208;DHT22;39093;52.788;6.940;2023-05-20T07:04:06;16.60;97.20
53208;DHT22;39093;52.788;6.940;2023-05-20T07:06:33;16.80;97.90
53208;DHT22;39093;52.788;6.940;2023-05-20T07:09:00;16.80;97.30
53208;DHT22;39093;52.788;6.940;2023-05-20T07:11:27;17.00;97.10
53208;DHT22;39093;52.788;6.940;2023-05-20T07:13:54;17.10;97.20
53208;DHT22;39093;52.788;6.940;2023-05-20T07:16:21;17.30;96.90
53208;DHT22;39093;52.788;6.940;2023-05-20T07:18:48;17.40;96.50
53208;DHT22;39093;52.788;6.940;2023-05-20T07:21:15;17.50;96.50
53208;DHT22;39093;52.788;6.940;2023-05-20T07:23:42;17.60;96.20
53208;DHT22;39093;52.788;6.940;2023-05-20T07:26:09;17.70;95.80
53208;DHT22;39093;52.788;6.940;2023-05-20T07:28:37;17.80;95.60
53208;DHT22;39093;52.788;6.940;2023-05-20T07:31:04;18.00;95.90
53208;DHT22;39093;52.788;6.940;2023-05-20T07:33:31;18.10;95.20
53208;DHT22;39093;52.788;6.940;2023-05-20T07:35:58;18.10;94.70
53208;DHT22;39093;52.788;6.940;2023-05-20T07:38:25;18.20;94.70
53208;DHT22;39093;52.788;6.940;2023-05-20T07:40:52;18.40;93.80
53208;DHT22;39093;52.788;6.940;2023-05-20T07:43:19;18.50;93.30
53208;DHT22;39093;52.788;6.940;2023-05-20T07:45:46;18.50;93.50
53208;DHT22;39093;52.788;6.940;2023-05-20T07:48:13;18.40;93.40
53208;DHT22;39093;52.788;6.940;2023-05-20T07:50:40;18.50;93.80
53208;DHT22;39093;52.788;6.940;2023-05-20T07:53:07;18.60;93.00
53208;DHT22;39093;52.788;6.940;2023-05-20T07:55:34;18.80;92.60
53208;DHT22;39093;52.788;6.940;2023-05-20T07:58:03;18.80;93.10
53208;DHT22;39093;52.788;6.940;2023-05-20T08:00:30;18.90;92.50
53208;DHT22;39093;52.788;6.940;2023-05-20T08:02:57;19.00;93.10
53208;DHT22;39093;52.788;6.940;2023-05-20T08:05:24;19.00;92.10
53208;DHT22;39093;52.788;6.940;2023-05-20T08:07:51;19.20;92.10
53208;DHT22;39093;52.788;6.940;2023-05-20T08:10:18;19.20;91.90
53208;DHT22;39093;52.788;6.940;2023-05-20T08:12:45;19.30;91.50
53208;DHT22;39093;52.788;6.940;2023-05-20T08:15:12;19.30;91.50
53208;DHT22;39093;52.788;6.940;2023-05-20T08:17:39;19.40;91.00
53208;DHT22;39093;52.788;6.940;2023-05-20T08:20:07;19.50;91.30
53208;DHT22;39093;52.788;6.940;2023-05-20T08:22:35;19.60;91.10
53208;DHT22;39093;52.788;6.940;2023-05-20T08:25:07;19.70;90.30
53208;DHT22;39093;52.788;6.940;2023-05-20T08:27:35;19.70;89.90
53208;DHT22;39093;52.788;6.940;2023-05-20T08:30:06;19.70;88.50
53208;DHT22;39093;52.788;6.940;2023-05-20T08:32:35;19.80;89.10
53208;DHT22;39093;52.788;6.940;2023-05-20T08:35:03;19.80;87.10
53208;DHT22;39093;52.788;6.940;2023-05-20T08:37:30;19.90;88.00
53208;DHT22;39093;52.788;6.940;2023-05-20T08:39:58;19.90;87.50
53208;DHT22;39093;52.788;6.940;2023-05-20T08:42:25;20.00;87.60
53208;DHT22;39093;52.788;6.940;2023-05-20T08:44:53;20.10;87.40
53208;DHT22;39093;52.788;6.940;2023-05-20T08:47:22;20.20;87.40
53208;DHT22;39093;52.788;6.940;2023-05-20T08:49:49;20.20;86.40
53208;DHT22;39093;52.788;6.940;2023-05-20T08:52:20;20.30;84.70
53208;DHT22;39093;52.788;6.940;2023-05-20T08:54:49;20.20;86.40
53208;DHT22;39093;52.788;6.940;2023-05-20T08:57:17;20.30;87.80
53208;DHT22;39093;52.788;6.940;2023-05-20T08:59:46;20.40;84.40
53208;DHT22;39093;52.788;6.940;2023-05-20T09:02:13;20.40;83.80
53208;DHT22;39093;52.788;6.940;2023-05-20T09:04:40;20.40;84.40
53208;DHT22;39093;52.788;6.940;2023-05-20T09:07:08;20.50;85.00
53208;DHT22;39093;52.788;6.940;2023-05-20T09:09:35;20.50;84.00
53208;DHT22;39093;52.788;6.940;2023-05-20T09:12:02;20.50;84.40
53208;DHT22;39093;52.788;6.940;2023-05-20T09:14:30;20.50;83.10
53208;DHT22;39093;52.788;6.940;2023-05-20T09:16:58;20.50;82.00
53208;DHT22;39093;52.788;6.940;2023-05-20T09:19:25;20.50;82.70
53208;DHT22;39093;52.788;6.940;2023-05-20T09:21:53;20.50;81.90
53208;DHT22;39093;52.788;6.940;2023-05-20T09:24:24;20.60;82.50
53208;DHT22;39093;52.788;6.940;2023-05-20T09:26:52;20.80;82.20
53208;DHT22;39093;52.788;6.940;2023-05-20T09:29:19;20.90;82.40
53208;DHT22;39093;52.788;6.940;2023-05-20T09:31:48;20.90;80.60
53208;DHT22;39093;52.788;6.940;2023-05-20T09:34:16;20.90;80.00
53208;DHT22;39093;52.788;6.940;2023-05-20T09:36:43;21.10;81.20
53208;DHT22;39093;52.788;6.940;2023-05-20T09:39:15;21.20;79.20
53208;DHT22;39093;52.788;6.940;2023-05-20T09:41:51;21.20;80.70
53208;DHT22;39093;52.788;6.940;2023-05-20T09:44:20;21.30;79.40
53208;DHT22;39093;52.788;6.940;2023-05-20T09:46:49;21.40;79.10
53208;DHT22;39093;52.788;6.940;2023-05-20T09:49:16;21.50;78.50
53208;DHT22;39093;52.788;6.940;2023-05-20T09:51:45;21.60;78.10
53208;DHT22;39093;52.788;6.940;2023-05-20T09:54:14;21.60;77.70
53208;DHT22;39093;52.788;6.940;2023-05-20T09:56:43;21.60;78.60
53208;DHT22;39093;52.788;6.940;2023-05-20T09:59:10;21.70;79.80
53208;DHT22;39093;52.788;6.940;2023-05-20T10:01:38;21.90;79.30
53208;DHT22;39093;52.788;6.940;2023-05-20T10:04:06;22.20;76.20
53208;DHT22;39093;52.788;6.940;2023-05-20T10:06:46;22.20;76.40
53208;DHT22;39093;52.788;6.940;2023-05-20T10:09:36;22.10;75.40
53208;DHT22;39093;52.788;6.940;2023-05-20T10:15:22;22.00;72.10
53208;DHT22;39093;52.788;6.940;2023-05-20T10:20:50;21.80;74.10
53208;DHT22;39093;52.788;6.940;2023-05-20T10:23:27;21.70;71.90
53208;DHT22;39093;52.788;6.940;2023-05-20T10:25:55;21.40;71.70
53208;DHT22;39093;52.788;6.940;2023-05-20T10:28:30;21.30;72.90
53208;DHT22;39093;52.788;6.940;2023-05-20T10:30:59;21.30;72.90
53208;DHT22;39093;52.788;6.940;2023-05-20T10:33:26;21.50;72.60
53208;DHT22;39093;52.788;6.940;2023-05-20T10:35:57;21.40;72.40
53208;DHT22;39093;52.788;6.940;2023-05-20T10:38:24;21.50;72.00
53208;DHT22;39093;52.788;6.940;2023-05-20T10:40:52;21.40;71.50
53208;DHT22;39093;52.788;6.940;2023-05-20T10:43:26;21.50;71.90
53208;DHT22;39093;52.788;6.940;2023-05-20T10:45:55;21.60;71.60
53208;DHT22;39093;52.788;6.940;2023-05-20T10:48:24;21.80;70.40
53208;DHT22;39093;52.788;6.940;2023-05-20T10:50:56;22.10;71.90
53208;DHT22;39093;52.788;6.940;2023-05-20T10:53:25;22.30;72.20
53208;DHT22;39093;52.788;6.940;2023-05-20T10:56:00;22.50;71.50
53208;DHT22;39093;52.788;6.940;2023-05-20T10:58:27;22.60;70.60
53208;DHT22;39093;52.788;6.940;2023-05-20T11:01:02;22.50;71.30
53208;DHT22;39093;52.788;6.940;2023-05-20T11:03:29;22.70;71.30
53208;DHT22;39093;52.788;6.940;2023-05-20T11:05:57;22.90;70.80
53208;DHT22;39093;52.788;6.940;2023-05-20T11:08:28;23.20;69.60
53208;DHT22;39093;52.788;6.940;2023-05-20T11:10:56;23.10;69.30
53208;DHT22;39093;52.788;6.940;2023-05-20T11:13:24;23.00;69.10
53208;DHT22;39093;52.788;6.940;2023-05-20T11:15:51;23.00;68.90
53208;DHT22;39093;52.788;6.940;2023-05-20T11:18:19;22.80;69.40
53208;DHT22;39093;52.788;6.940;2023-05-20T11:20:46;22.50;68.70
53208;DHT22;39093;52.788;6.940;2023-05-20T11:23:14;22.30;69.40
53208;DHT22;39093;52.788;6.940;2023-05-20T11:25:41;22.20;68.80
53208;DHT22;39093;52.788;6.940;2023-05-20T11:28:12;21.90;68.70
53208;DHT22;39093;52.788;6.940;2023-05-20T11:30:43;21.80;68.90
53208;DHT22;39093;52.788;6.940;2023-05-20T11:33:14;21.70;70.90
53208;DHT22;39093;52.788;6.940;2023-05-20T11:35:45;21.80;72.90
53208;DHT22;39093;52.788;6.940;2023-05-20T11:38:13;22.20;71.20
53208;DHT22;39093;52.788;6.940;2023-05-20T11:40:43;22.50;70.90
53208;DHT22;39093;52.788;6.940;2023-05-20T11:43:17;22.80;70.60
53208;DHT22;39093;52.788;6.940;2023-05-20T11:45:46;22.90;70.00
53208;DHT22;39093;52.788;6.940;2023-05-20T11:48:13;23.00;69.10
53208;DHT22;39093;52.788;6.940;2023-05-20T11:50:45;23.30;70.30
53208;DHT22;39093;52.788;6.940;2023-05-20T11:53:16;23.70;71.00
53208;DHT22;39093;52.788;6.940;2023-05-20T11:55:47;23.80;69.20
53208;DHT22;39093;52.788;6.940;2023-05-20T11:58:15;24.10;67.40
53208;DHT22;39093;52.788;6.940;2023-05-20T12:00:43;24.30;66.70
53208;DHT22;39093;52.788;6.940;2023-05-20T12:03:20;24.50;67.90
53208;DHT22;39093;52.788;6.940;2023-05-20T12:05:48;24.80;66.90
53208;DHT22;39093;52.788;6.940;2023-05-20T12:08:16;25.00;66.90
53208;DHT22;39093;52.788;6.940;2023-05-20T12:10:43;25.20;64.40
53208;DHT22;39093;52.788;6.940;2023-05-20T12:13:13;25.40;63.90
53208;DHT22;39093;52.788;6.940;2023-05-20T12:15:40;25.50;63.30
53208;DHT22;39093;52.788;6.940;2023-05-20T12:18:07;25.50;62.20
53208;DHT22;39093;52.788;6.940;2023-05-20T12:20:34;25.40;62.70
53208;DHT22;39093;52.788;6.940;2023-05-20T12:23:02;24.80;64.00
53208;DHT22;39093;52.788;6.940;2023-05-20T12:25:30;24.40;65.90
53208;DHT22;39093;52.788;6.940;2023-05-20T12:27:58;24.30;64.30
53208;DHT22;39093;52.788;6.940;2023-05-20T12:30:25;24.50;62.90
53208;DHT22;39093;52.788;6.940;2023-05-20T12:32:51;24.60;62.80
53208;DHT22;39093;52.788;6.940;2023-05-20T12:35:24;24.60;62.90
53208;DHT22;39093;52.788;6.940;2023-05-20T12:37:52;24.90;65.50
53208;DHT22;39093;52.788;6.940;2023-05-20T12:40:19;25.10;64.20
53208;DHT22;39093;52.788;6.940;2023-05-20T12:42:46;25.30;64.70
53208;DHT22;39093;52.788;6.940;2023-05-20T12:45:13;25.40;63.30
53208;DHT22;39093;52.788;6.940;2023-05-20T12:47:40;25.60;63.00
53208;DHT22;39093;52.788;6.940;2023-05-20T12:50:07;25.90;62.10
53208;DHT22;39093;52.788;6.940;2023-05-20T12:52:34;26.10;62.60
53208;DHT22;39093;52.788;6.940;2023-05-20T12:55:01;26.10;61.60
53208;DHT22;39093;52.788;6.940;2023-05-20T12:57:28;26.00;61.90
53208;DHT22;39093;52.788;6.940;2023-05-20T12:59:55;25.50;60.80
53208;DHT22;39093;52.788;6.940;2023-05-20T13:02:22;25.10;60.70
53208;DHT22;39093;52.788;6.940;2023-05-20T13:04:49;24.80;60.90
53208;DHT22;39093;52.788;6.940;2023-05-20T13:07:16;24.60;61.90
53208;DHT22;39093;52.788;6.940;2023-05-20T13:09:43;24.40;61.50
53208;DHT22;39093;52.788;6.940;2023-05-20T13:12:10;24.30;61.20
53208;DHT22;39093;52.788;6.940;2023-05-20T13:14:37;24.00;62.40
53208;DHT22;39093;52.788;6.940;2023-05-20T13:17:04;23.80;61.90
53208;DHT22;39093;52.788;6.940;2023-05-20T13:19:31;23.40;62.50
53208;DHT22;39093;52.788;6.940;2023-05-20T13:21:59;23.20;62.50
53208;DHT22;39093;52.788;6.940;2023-05-20T13:24:26;23.10;63.60
53208;DHT22;39093;52.788;6.940;2023-05-20T13:26:53;22.90;64.00
53208;DHT22;39093;52.788;6.940;2023-05-20T13:29:20;22.80;63.40
53208;DHT22;39093;52.788;6.940;2023-05-20T13:31:47;22.70;63.30
53208;DHT22;39093;52.788;6.940;2023-05-20T13:34:14;22.50;63.30
53208;DHT22;39093;52.788;6.940;2023-05-20T13:36:41;22.40;64.60
53208;DHT22;39093;52.788;6.940;2023-05-20T13:39:08;22.50;64.60
53208;DHT22;39093;52.788;6.940;2023-05-20T13:41:35;22.60;63.90
53208;DHT22;39093;52.788;6.940;2023-05-20T13:44:02;22.50;64.00
53208;DHT22;39093;52.788;6.940;2023-05-20T13:46:33;22.50;63.90
53208;DHT22;39093;52.788;6.940;2023-05-20T13:49:01;22.40;64.00
53208;DHT22;39093;52.788;6.940;2023-05-20T13:51:29;22.20;64.80
53208;DHT22;39093;52.788;6.940;2023-05-20T13:53:56;22.20;64.80
53208;DHT22;39093;52.788;6.940;2023-05-20T13:56:23;22.10;65.40
53208;DHT22;39093;52.788;6.940;2023-05-20T13:58:50;22.00;65.90
53208;DHT22;39093;52.788;6.940;2023-05-20T14:01:17;22.10;65.80
53208;DHT22;39093;52.788;6.940;2023-05-20T14:03:44;21.90;65.90
53208;DHT22;39093;52.788;6.940;2023-05-20T14:06:12;21.90;65.60
53208;DHT22;39093;52.788;6.940;2023-05-20T14:08:40;21.90;65.30
53208;DHT22;39093;52.788;6.940;2023-05-20T14:11:08;21.80;64.90
53208;DHT22;39093;52.788;6.940;2023-05-20T14:13:35;21.60;65.30
53208;DHT22;39093;52.788;6.940;2023-05-20T14:16:02;21.70;65.80
53208;DHT22;39093;52.788;6.940;2023-05-20T14:18:29;21.70;65.70
53208;DHT22;39093;52.788;6.940;2023-05-20T14:20:56;21.60;65.40
53208;DHT22;39093;52.788;6.940;2023-05-20T14:23:23;21.50;65.70
53208;DHT22;39093;52.788;6.940;2023-05-20T14:25:50;21.50;66.10
53208;DHT22;39093;52.788;6.940;2023-05-20T14:28:17;21.50;66.70
53208;DHT22;39093;52.788;6.940;2023-05-20T14:30:44;21.70;66.60
53208;DHT22;39093;52.788;6.940;2023-05-20T14:33:11;21.60;65.80
53208;DHT22;39093;52.788;6.940;2023-05-20T14:35:38;21.50;66.30
53208;DHT22;39093;52.788;6.940;2023-05-20T14:38:05;21.40;66.40
53208;DHT22;39093;52.788;6.940;2023-05-20T14:40:32;21.30;66.70
53208;DHT22;39093;52.788;6.940;2023-05-20T14:43:06;21.10;67.10
53208;DHT22;39093;52.788;6.940;2023-05-20T14:45:33;21.00;67.30
53208;DHT22;39093;52.788;6.940;2023-05-20T14:48:00;20.90;67.70
53208;DHT22;39093;52.788;6.940;2023-05-20T14:50:27;20.90;68.70
53208;DHT22;39093;52.788;6.940;2023-05-20T14:52:56;20.80;68.80
53208;DHT22;39093;52.788;6.940;2023-05-20T14:55:26;20.80;69.70
53208;DHT22;39093;52.788;6.940;2023-05-20T14:57:57;20.90;69.30
53208;DHT22;39093;52.788;6.940;2023-05-20T15:00:27;20.80;68.90
53208;DHT22;39093;52.788;6.940;2023-05-20T15:02:54;20.70;69.40
53208;DHT22;39093;52.788;6.940;2023-05-20T15:05:21;20.70;69.40
53208;DHT22;39093;52.788;6.940;2023-05-20T15:07:49;20.70;69.20
53208;DHT22;39093;52.788;6.940;2023-05-20T15:10:16;20.70;69.90
53208;DHT22;39093;52.788;6.940;2023-05-20T15:12:43;20.80;69.90
53208;DHT22;39093;52.788;6.940;2023-05-20T15:15:11;20.80;69.40
53208;DHT22;39093;52.788;6.940;2023-05-20T15:17:37;21.00;70.10
53208;DHT22;39093;52.788;6.940;2023-05-20T15:20:05;21.20;69.80
53208;DHT22;39093;52.788;6.940;2023-05-20T15:22:32;21.50;69.50
53208;DHT22;39093;52.788;6.940;2023-05-20T15:24:59;21.50;68.90
53208;DHT22;39093;52.788;6.940;2023-05-20T15:27:26;21.50;68.60
53208;DHT22;39093;52.788;6.940;2023-05-20T15:29:53;21.40;68.90
53208;DHT22;39093;52.788;6.940;2023-05-20T15:32:20;21.20;68.90
53208;DHT22;39093;52.788;6.940;2023-05-20T15:34:58;21.00;69.60
53208;DHT22;39093;52.788;6.940;2023-05-20T15:37:36;20.80;70.20
53208;DHT22;39093;52.788;6.940;2023-05-20T15:40:06;20.70;70.50
53208;DHT22;39093;52.788;6.940;2023-05-20T15:42:34;20.60;70.60